Terminal Aerodrome Forecast
Issued by NWS

Current Version | Previous Version | Text Only | Print | Product List | Glossary Off
Versions: 1 2 3 4 5 6 7 8 9 10 11 12 13

613
FTUS44 KSJT 242324
TAFBBD
TAF
KBBD 242324Z 2500/2524 14008KT P6SM OVC250
     FM250600 VRB05KT P6SM -SHRA OVC050
     FM251100 VRB03KT P6SM OVC015
     FM251900 13007KT P6SM OVC050 PROB30 2519/2522 P6SM -TSRA
      BKN025CB
     FM252200 11006KT 4SM -SHRA OVC025
      AMD NOT SKED=

USA.gov is the U.S. government's official web portal to all federal, state and local government web resources and services.